Schillplate — ZDJJ8 — position and weather

sailwx.info

Track history (hours):
 
Tides and Currents Weather Stations Pressure Air Temp Water Temp Dewpoint Dewpoint Depression Visibility Wind Speed Wind Dir Waves Ship Positions

Schillplate

Last reported at 2018-May-20 10:06 UTC. Time now 2018-May-20 14:11 UTC.
Position N 45°16' W 005°58'.

; draft 5.7 m.

Type: Cargo ship. MMSI: 236111603.

Date/timePositionNaut miles runAvg speedWind from/ knotsBaromVisibWave heightAir tempDewpointWater temp
2018-May-20 10:06N 45°16' W 005°58'8 9.7
2018-May-20 09:15N 45°24' W 005°57'3 9.8
2018-May-20 08:57N 45°27' W 005°57'6 9.8
2018-May-20 08:20N 45°33' W 005°57'8610.0
2018-May-19 23:43N 46°59' W 005°56'310.4
2018-May-19 23:26N 47°02' W 005°56'1610.5
2018-May-19 21:53N 47°18' W 005°57'1211.0
2018-May-19 20:48N 47°30' W 005°56'910.7
2018-May-19 19:58N 47°39' W 005°57'1010.1
2018-May-19 18:58N 47°49' W 005°56'9 9.0
2018-May-19 17:58N 47°58' W 005°56'8 8.5
2018-May-19 16:58N 48°07' W 005°56'8 8.4
2018-May-19 15:58N 48°15' W 005°56'9 8.7
2018-May-19 14:58N 48°24' W 005°56'4 9.3
2018-May-19 14:31N 48°28' W 005°56'5 9.6
2018-May-19 14:00N 48°33' W 005°56'510.0
2018-May-19 13:29N 48°38' W 005°56'510.5
2018-May-19 13:00N 48°43' W 005°53'611.2
2018-May-19 12:31N 48°48' W 005°49'611.0
2018-May-19 12:01N 48°53' W 005°45'510.9
2018-May-19 11:31N 48°56' W 005°39'510.6
2018-May-19 11:00N 48°59' W 005°32'510.3
2018-May-19 10:31N 49°02' W 005°26'5 9.9
2018-May-19 10:00N 49°05' W 005°20'5 9.5
2018-May-19 09:30N 49°08' W 005°14'5 9.1
2018-May-19 09:00N 49°11' W 005°08'4 8.6
2018-May-19 08:30N 49°13' W 005°02'4 8.2
2018-May-19 08:00N 49°15' W 004°57'4 8.1
2018-May-19 07:29N 49°17' W 004°51'6 8.0
2018-May-19 06:42N 49°20' W 004°43'2 8.1
2018-May-19 06:28N 49°21' W 004°41'4 8.2
2018-May-19 06:01N 49°23' W 004°36'4 8.5
2018-May-19 05:30N 49°25' W 004°30'4 8.9
2018-May-19 05:01N 49°27' W 004°24'5 9.3
2018-May-19 04:31N 49°30' W 004°18'5 9.9
2018-May-19 03:58N 49°32' W 004°11'1110.7
2018-May-19 02:58N 49°38' W 003°57'811.3
2018-May-19 02:18N 49°41' W 003°47'411.4
2018-May-19 02:00N 49°43' W 003°42'611.2
2018-May-19 01:29N 49°46' W 003°34'610.9
2018-May-19 00:58N 49°49' W 003°27'510.4
2018-May-19 00:31N 49°51' W 003°20'5 9.9
2018-May-18 23:59N 49°54' W 003°13'4 9.2
2018-May-18 23:30N 49°56' W 003°07'4 8.7
2018-May-18 23:00N 49°58' W 003°01'4 8.0
2018-May-18 22:31N 50°00' W 002°56'4 7.5
2018-May-18 21:57N 50°02' W 002°50'3 7.4
2018-May-18 21:30N 50°02' W 002°45'4 7.3
2018-May-18 21:00N 50°03' W 002°39'4 7.5
2018-May-18 20:28N 50°04' W 002°33'4 7.9
2018-May-18 20:00N 50°05' W 002°28'4 8.3
2018-May-18 19:30N 50°06' W 002°21'4 9.0
2018-May-18 19:00N 50°07' W 002°15'5 9.9
2018-May-18 18:30N 50°09' W 002°07'510.8
2018-May-18 18:01N 50°10' W 001°59'611.8
2018-May-18 17:30N 50°12' W 001°50'612.5
2018-May-18 17:00N 50°14' W 001°41'612.8
2018-May-18 16:31N 50°15' W 001°31'612.9
2018-May-18 16:00N 50°17' W 001°22'713.1
2018-May-18 15:28N 50°19' W 001°11'613.1
2018-May-18 15:01N 50°21' W 001°02'612.5
2018-May-18 14:30N 50°22' W 000°52'511.0
2018-May-18 14:00N 50°24' W 000°44'510.0
2018-May-18 13:31N 50°25' W 000°37'5 9.3
2018-May-18 13:00N 50°27' W 000°29'510.2
2018-May-18 12:29N 50°28' W 000°21'4 6.9
2018-May-18 11:58N 50°29' W 000°16'4 7.8
2018-May-18 11:30N 50°30' W 000°11'4 7.5
2018-May-18 11:00N 50°31' W 000°05'4 7.2
2018-May-18 10:30N 50°32' E 000°01'4 7.3
2018-May-18 10:00N 50°33' E 000°06'4 7.6
2018-May-18 09:31N 50°34' E 000°12'4 8.2
2018-May-18 09:00N 50°35' E 000°18'5 9.0
2018-May-18 08:29N 50°36' E 000°25'5 9.9
2018-May-18 08:01N 50°38' E 000°32'510.5
2018-May-18 07:31N 50°41' E 000°39'611.0
2018-May-18 07:00N 50°44' E 000°46'611.2
2018-May-18 06:30N 50°47' E 000°54'611.0
2018-May-18 06:00N 50°50' E 001°01'810.4
2018-May-18 05:15N 50°55' E 001°10'4 9.9
2018-May-18 04:48N 50°58' E 001°16'3 9.2
2018-May-18 04:25N 51°00' E 001°20'4 8.6
2018-May-18 03:59N 51°03' E 001°25'4 8.0
2018-May-18 03:27N 51°06' E 001°30'3 6.9
2018-May-18 03:00N 51°08' E 001°33'3 6.1
2018-May-18 02:30N 51°10' E 001°37'3 6.3
2018-May-18 02:00N 51°12' E 001°41'3 6.7
2018-May-18 01:31N 51°14' E 001°45'4 7.6
2018-May-18 01:01N 51°17' E 001°47'4 8.6
2018-May-18 00:30N 51°21' E 001°50'5 9.4
2018-May-18 00:01N 51°25' E 001°54'510.2
2018-May-17 23:30N 51°29' E 001°59'611.2
2018-May-17 23:00N 51°33' E 002°05'611.5
2018-May-17 22:30N 51°38' E 002°12'611.7
2018-May-17 21:59N 51°42' E 002°18'511.6
2018-May-17 21:30N 51°46' E 002°25'711.4
2018-May-17 20:56N 51°51' E 002°32'511.2
2018-May-17 20:30N 51°54' E 002°38'710.5
2018-May-17 19:47N 51°59' E 002°46'3 9.8
2018-May-17 19:27N 52°01' E 002°51'5 9.4
2018-May-17 18:56N 52°03' E 002°58'4 9.2
2018-May-17 18:30N 52°04' E 003°04'4 8.9
2018-May-17 18:00N 52°04' E 003°12'4 8.9
2018-May-17 17:30N 52°04' E 003°19'4 8.5
2018-May-17 17:00N 52°04' E 003°26'4 8.0
2018-May-17 16:30N 52°04' E 003°32'4 7.9
2018-May-17 16:01N 52°04' E 003°39'4 7.7
2018-May-17 15:30N 52°03' E 003°45'4 7.8
2018-May-17 15:00N 52°03' E 003°51'3 6.8
2018-May-17 14:31N 52°02' E 003°56'4 7.8
2018-May-17 14:01N 51°60' E 004°02'5 9.9
2018-May-17 13:31N 51°58' E 004°09'510.5
2018-May-17 13:01N 51°54' E 004°16'4 7.0
2018-May-17 12:30N 51°54' E 004°21'0 0.3
2018-May-17 11:59N 51°54' E 004°21'0 0.0
2018-May-17 11:29N 51°54' E 004°21'0 0.0
2018-May-17 10:59N 51°54' E 004°21'0 0.0
2018-May-17 10:29N 51°54' E 004°21'0 0.0
2018-May-17 09:44N 51°54' E 004°21'0 0.0
2018-May-17 09:26N 51°54' E 004°21'0 0.0
2018-May-17 08:59N 51°54' E 004°21'0 0.0
2018-May-17 08:26N 51°54' E 004°21'0 0.0
2018-May-17 07:53N 51°54' E 004°21'0 0.0
2018-May-17 07:26N 51°54' E 004°21'0 0.0
2018-May-17 06:59N 51°54' E 004°21'0 0.0
2018-May-17 06:29N 51°54' E 004°21'0 0.0
2018-May-17 05:59N 51°54' E 004°21'0 0.0
2018-May-17 05:29N 51°54' E 004°21'0 0.0
2018-May-17 04:59N 51°54' E 004°21'0 0.0
2018-May-17 04:29N 51°54' E 004°21'0 0.0
2018-May-17 03:59N 51°54' E 004°21'0 0.0
2018-May-17 03:29N 51°54' E 004°21'0 0.0
2018-May-17 02:59N 51°54' E 004°21'0 0.0
2018-May-17 02:29N 51°54' E 004°21'0 0.0
2018-May-17 01:59N 51°54' E 004°21'0 0.0
2018-May-17 01:26N 51°54' E 004°21'0 0.0
2018-May-17 00:56N 51°54' E 004°21'0 0.0
2018-May-17 00:29N 51°54' E 004°21'0 0.0
2018-May-16 23:59N 51°54' E 004°21'0 0.0
2018-May-16 23:23N 51°54' E 004°21'0 0.0
2018-May-16 22:56N 51°54' E 004°21'0 0.0
2018-May-16 22:29N 51°54' E 004°21'0 0.0
2018-May-16 21:59N 51°54' E 004°21'0 0.0
2018-May-16 21:29N 51°54' E 004°21'0 0.0
2018-May-16 20:59N 51°54' E 004°21'0 0.0
2018-May-16 20:29N 51°54' E 004°21'0 0.0
2018-May-16 19:59N 51°54' E 004°21'0 0.0
2018-May-16 19:29N 51°54' E 004°21'0 0.0
2018-May-16 18:56N 51°54' E 004°21'0 0.0
2018-May-16 18:26N 51°54' E 004°21'0 0.0
2018-May-16 17:59N 51°54' E 004°21'0 0.0
2018-May-16 17:29N 51°54' E 004°21'0 0.0
2018-May-16 16:59N 51°54' E 004°21'0 0.0
2018-May-16 16:29N 51°54' E 004°21'0 0.0
2018-May-16 15:59N 51°54' E 004°21'0 0.0
2018-May-16 15:29N 51°54' E 004°21'0 0.0
2018-May-16 14:59N 51°54' E 004°21'0 0.0
2018-May-16 14:23N 51°54' E 004°21'0 0.0
2018-May-16 13:59N 51°54' E 004°21'0 0.0
2018-May-16 13:29N 51°54' E 004°21'0 0.0
2018-May-16 12:59N 51°54' E 004°21'0 0.0
2018-May-16 12:29N 51°54' E 004°21'0 0.0
2018-May-16 11:59N 51°54' E 004°21'0 0.0
2018-May-16 11:29N 51°54' E 004°21'0 0.0
2018-May-16 10:59N 51°54' E 004°21'0 0.0
2018-May-16 10:29N 51°54' E 004°21'0 0.0
2018-May-16 09:59N 51°54' E 004°21'0 0.0
2018-May-16 09:29N 51°54' E 004°21'0 0.0
2018-May-16 08:59N 51°54' E 004°21'0 0.0
2018-May-16 08:29N 51°54' E 004°21'0 0.0
2018-May-16 07:59N 51°54' E 004°21'0 0.0
2018-May-16 07:29N 51°54' E 004°21'0 0.0
2018-May-16 06:59N 51°54' E 004°21'0 0.0
2018-May-16 06:29N 51°54' E 004°21'0 0.0
2018-May-16 05:59N 51°54' E 004°21'0 0.0
2018-May-16 05:29N 51°54' E 004°21'0 0.0
2018-May-16 04:59N 51°54' E 004°21'0 0.0
2018-May-16 04:26N 51°54' E 004°21'0 0.0
2018-May-16 03:59N 51°54' E 004°21'0 0.0
2018-May-16 03:29N 51°54' E 004°21'0 0.0
2018-May-16 02:59N 51°54' E 004°21'0 0.0
2018-May-16 02:29N 51°54' E 004°21'0 0.0
2018-May-16 01:59N 51°54' E 004°21'0 0.0
2018-May-16 01:29N 51°54' E 004°21'0 0.0
2018-May-16 00:56N 51°54' E 004°21'0 0.0
2018-May-16 00:29N 51°54' E 004°21'0 0.0
2018-May-15 23:59N 51°54' E 004°21'0 0.0
2018-May-15 23:26N 51°54' E 004°21'0 0.0
2018-May-15 22:59N 51°54' E 004°21'0 0.0
2018-May-15 22:29N 51°54' E 004°21'0 0.0
2018-May-15 21:59N 51°54' E 004°21'0 0.0
2018-May-15 21:29N 51°54' E 004°21'0 0.0
2018-May-15 20:59N 51°54' E 004°21'0 0.0
2018-May-15 20:29N 51°54' E 004°21'0 0.0
2018-May-15 19:59N 51°54' E 004°21'0 0.0
2018-May-15 19:26N 51°54' E 004°21'0 0.0
2018-May-15 18:59N 51°54' E 004°21'0 0.0
2018-May-15 18:29N 51°54' E 004°21'0 0.0
2018-May-15 17:59N 51°54' E 004°21'0 0.0
2018-May-15 17:29N 51°54' E 004°21'0 0.0
2018-May-15 16:56N 51°54' E 004°21'0 0.0
2018-May-15 16:29N 51°54' E 004°21'0 0.0
2018-May-15 15:56N 51°54' E 004°21'0 0.0
2018-May-15 15:29N 51°54' E 004°21'0 0.0
2018-May-15 14:59N 51°54' E 004°21'0 0.0
2018-May-15 14:29N 51°54' E 004°21'0 0.0
2018-May-15 13:56N 51°54' E 004°21'0 0.0
2018-May-15 13:29N 51°54' E 004°21'0 0.0
2018-May-15 12:56N 51°54' E 004°21'0 0.0
2018-May-15 12:29N 51°54' E 004°21'0 0.0
2018-May-15 11:59N 51°54' E 004°21'0 0.0
2018-May-15 11:29N 51°54' E 004°21'0 0.0
2018-May-15 10:59N 51°54' E 004°21'0 0.0
2018-May-15 10:29N 51°54' E 004°21'0 0.0
2018-May-15 09:59N 51°54' E 004°21'0 0.0
2018-May-15 09:29N 51°54' E 004°21'0 0.0
2018-May-15 08:59N 51°54' E 004°21'0 0.0
2018-May-15 08:26N 51°54' E 004°21'0 0.0
2018-May-15 07:59N 51°54' E 004°21'0 0.0
2018-May-15 07:29N 51°54' E 004°21'0 0.0
2018-May-15 06:59N 51°54' E 004°21'0 0.0
2018-May-15 06:29N 51°54' E 004°21'0 0.0
2018-May-15 05:59N 51°54' E 004°21'0 0.0
2018-May-15 05:29N 51°54' E 004°21'0 0.0
2018-May-15 04:59N 51°54' E 004°21'0 0.0
2018-May-15 04:29N 51°54' E 004°21'0 0.0
2018-May-15 03:59N 51°54' E 004°21'0 0.0
2018-May-15 03:29N 51°54' E 004°21'0 0.0
2018-May-15 02:59N 51°54' E 004°21'0 0.0
2018-May-15 02:29N 51°54' E 004°21'0 0.0
2018-May-15 01:59N 51°54' E 004°21'0 0.0
2018-May-15 01:29N 51°54' E 004°21'0 0.0
2018-May-15 00:56N 51°54' E 004°21'0 0.0
2018-May-15 00:29N 51°54' E 004°21'0 0.0
2018-May-14 23:59N 51°54' E 004°21'0 0.0
2018-May-14 23:29N 51°54' E 004°21'0 0.0
2018-May-14 22:59N 51°54' E 004°21'0 0.0
2018-May-14 22:29N 51°54' E 004°21'0 0.0
2018-May-14 21:59N 51°54' E 004°21'0 0.0
2018-May-14 21:29N 51°54' E 004°21'0 0.0
2018-May-14 20:59N 51°54' E 004°21'0 0.0
2018-May-14 20:29N 51°54' E 004°21'0 0.0
2018-May-14 19:59N 51°54' E 004°21'0 0.0
2018-May-14 19:29N 51°54' E 004°21'0 0.0
2018-May-14 18:59N 51°54' E 004°21'0 0.0
2018-May-14 18:29N 51°54' E 004°21'0 0.0
2018-May-14 17:56N 51°54' E 004°21'0 0.0
2018-May-14 17:29N 51°54' E 004°21'0 0.0
2018-May-14 16:59N 51°54' E 004°21'0 0.0
2018-May-14 16:29N 51°54' E 004°21'0 0.0
2018-May-14 15:56N 51°54' E 004°21'0 0.0
2018-May-14 15:29N 51°54' E 004°21'0 0.0
2018-May-14 14:59N 51°54' E 004°21'0 0.0
2018-May-14 14:29N 51°54' E 004°21'0 0.0
2018-May-14 13:56N 51°54' E 004°21'0 0.0
2018-May-14 13:29N 51°54' E 004°21'0 0.0
2018-May-14 12:59N 51°54' E 004°21'0 0.3
2018-May-14 12:30N 51°54' E 004°21'4 7.6
2018-May-14 12:00N 51°55' E 004°15'510.5
2018-May-14 11:31N 51°58' E 004°09'5 9.3
2018-May-14 11:01N 51°60' E 004°02'4 8.8
2018-May-14 10:30N 51°60' E 003°54'3 6.5
2018-May-14 10:00N 51°60' E 003°49'4 8.1
2018-May-14 09:30N 51°58' E 003°43'4 8.4
2018-May-14 08:59N 51°57' E 003°36'4 8.7
2018-May-14 08:29N 51°56' E 003°30'6 8.5
2018-May-14 07:50N 51°54' E 003°21'3 8.4
2018-May-14 07:29N 51°53' E 003°16'4 8.1
2018-May-14 06:58N 51°52' E 003°10'17 8.6
2018-May-14 04:57N 51°49' E 002°42'57 8.8
2018-May-13 22:33N 52°42' E 002°09'210.0
2018-May-13 22:24N 52°43' E 002°08'610.0
2018-May-13 21:48N 52°49' E 002°05'310.2
2018-May-13 21:30N 52°52' E 002°02'610.4
2018-May-13 20:58N 52°55' E 001°55'510.8
2018-May-13 20:31N 52°58' E 001°48'611.2
2018-May-13 20:01N 53°01' E 001°40'611.3
2018-May-13 19:31N 53°06' E 001°36'611.5
2018-May-13 19:01N 53°11' E 001°32'711.7
2018-May-13 18:24N 53°18' E 001°27'511.7
2018-May-13 17:58N 53°22' E 001°22'6711.5
2018-May-13 12:07N 54°21' E 000°30'210.8
2018-May-13 11:54N 54°24' E 000°28'410.6
2018-May-13 11:29N 54°27' E 000°25'16910.3
2018-May-12 19:01N 56°58' W 001°53'0 9.5
2018-May-12 18:59N 56°58' W 001°53'5 9.7
2018-May-12 18:30N 57°02' W 001°57'5 9.8
2018-May-12 18:00N 57°07' W 001°60'3 6.0
2018-May-12 17:30N 57°08' W 002°04'0 0.5
2018-May-12 16:59N 57°09' W 002°05'0 0.0
2018-May-12 16:29N 57°09' W 002°05'0 0.0
2018-May-12 15:59N 57°09' W 002°05'0 0.0
2018-May-12 15:29N 57°09' W 002°05'0 0.0
2018-May-12 14:59N 57°09' W 002°05'0 0.0
2018-May-12 14:29N 57°09' W 002°05'0 0.0
2018-May-12 13:59N 57°09' W 002°05'0 0.0
2018-May-12 13:29N 57°09' W 002°05'0 0.0
2018-May-12 12:59N 57°09' W 002°05'0 0.0
2018-May-12 12:29N 57°09' W 002°05'0 0.0
2018-May-12 11:59N 57°09' W 002°05'0 0.0
2018-May-12 11:29N 57°09' W 002°05'0 0.0
2018-May-12 10:59N 57°09' W 002°05'0 0.0
2018-May-12 10:29N 57°09' W 002°05'0 0.0
2018-May-12 09:59N 57°09' W 002°05'0 0.0
2018-May-12 09:29N 57°09' W 002°05'0 0.0
2018-May-12 08:59N 57°09' W 002°05'0 0.0
2018-May-12 08:29N 57°09' W 002°05'0 0.0
2018-May-12 07:59N 57°09' W 002°05'0 0.0
2018-May-12 07:29N 57°09' W 002°05'0 0.0
2018-May-12 06:59N 57°09' W 002°05'0 0.0
2018-May-12 06:29N 57°09' W 002°05'0 0.0
2018-May-12 05:59N 57°09' W 002°05'0 0.0
2018-May-12 05:29N 57°09' W 002°05'0 0.0
2018-May-12 04:59N 57°09' W 002°05'0 0.0
2018-May-12 04:29N 57°09' W 002°05'0 0.0
2018-May-12 03:59N 57°09' W 002°05'0 0.0
2018-May-12 03:29N 57°09' W 002°05'0 0.0
2018-May-12 02:59N 57°09' W 002°05'0 0.0
2018-May-12 02:29N 57°09' W 002°05'0 0.0
2018-May-12 01:59N 57°09' W 002°05'0 0.3
2018-May-12 01:31N 57°09' W 002°05'2 4.6
2018-May-12 01:00N 57°10' W 002°01'5 9.5
2018-May-12 00:30N 57°11' W 001°53'5 9.6
2018-May-12 00:00N 57°13' W 001°44'6 9.8
2018-May-11 23:26N 57°15' W 001°35'202 9.8
2018-May-11 02:45N 58°33' E 004°17'310.8
2018-May-11 02:27N 58°35' E 004°22'510.7
2018-May-11 02:00N 58°36' E 004°31'510.4
2018-May-11 01:30N 58°39' E 004°40'510.2
2018-May-11 01:00N 58°41' E 004°49'510.3
2018-May-11 00:30N 58°43' E 004°58'510.9
2018-May-11 00:00N 58°46' E 005°07'510.6
2018-May-10 23:31N 58°48' E 005°16'510.2
2018-May-10 23:01N 58°50' E 005°25'5 9.2
2018-May-10 22:30N 58°53' E 005°32'3 6.3
2018-May-10 22:00N 58°55' E 005°36'0 0.0
2018-May-10 21:14N 58°55' E 005°36'0 0.0
2018-May-10 20:59N 58°55' E 005°36'0 0.0
2018-May-10 20:20N 58°55' E 005°36'0 0.0
2018-May-10 19:44N 58°55' E 005°36'0 0.0
2018-May-10 18:11N 58°55' E 005°36'0 0.0
2018-May-10 17:59N 58°55' E 005°36'0 0.0
2018-May-10 17:29N 58°55' E 005°36'0 0.0
2018-May-10 16:59N 58°55' E 005°36'0 0.0
2018-May-10 15:59N 58°55' E 005°36'0 0.0
2018-May-10 15:23N 58°55' E 005°36'0 0.0
2018-May-10 14:35N 58°55' E 005°36'0 0.0
2018-May-10 14:20N 58°55' E 005°36'0 0.0
2018-May-10 13:47N 58°55' E 005°36'0 0.0
2018-May-10 13:20N 58°55' E 005°36'0 0.0
2018-May-10 12:44N 58°55' E 005°36'0 0.0
2018-May-10 12:26N 58°55' E 005°36'0 0.0
2018-May-10 12:00N 58°55' E 005°36'2 3.6
2018-May-10 11:29N 58°55' E 005°33'510.0
2018-May-10 11:00N 58°50' E 005°30'510.7
2018-May-10 10:30N 58°46' E 005°24'  
Track history (hours):
 
Tides and Currents Weather Stations Pressure Air Temp Water Temp Dewpoint Dewpoint Depression Visibility Wind Speed Wind Dir Waves Ship Positions

Schillplate

Last reported at 2018-May-20 10:06 UTC. Time now 2018-May-20 14:11 UTC.
Position N 45°16' W 005°58'.

; draft 5.7 m.

Type: Cargo ship. MMSI: 236111603.

Date/timePositionNaut miles runAvg speedWind from/ knotsBaromVisibWave heightAir tempDewpointWater temp
2018-May-20 10:06N 45°16' W 005°58'8 9.7
2018-May-20 09:15N 45°24' W 005°57'3 9.8
2018-May-20 08:57N 45°27' W 005°57'6 9.8
2018-May-20 08:20N 45°33' W 005°57'8610.0
2018-May-19 23:43N 46°59' W 005°56'310.4
2018-May-19 23:26N 47°02' W 005°56'1610.5
2018-May-19 21:53N 47°18' W 005°57'1211.0
2018-May-19 20:48N 47°30' W 005°56'910.7
2018-May-19 19:58N 47°39' W 005°57'1010.1
2018-May-19 18:58N 47°49' W 005°56'9 9.0
2018-May-19 17:58N 47°58' W 005°56'8 8.5
2018-May-19 16:58N 48°07' W 005°56'8 8.4
2018-May-19 15:58N 48°15' W 005°56'9 8.7
2018-May-19 14:58N 48°24' W 005°56'4 9.3
2018-May-19 14:31N 48°28' W 005°56'5 9.6
2018-May-19 14:00N 48°33' W 005°56'510.0
2018-May-19 13:29N 48°38' W 005°56'510.5
2018-May-19 13:00N 48°43' W 005°53'611.2
2018-May-19 12:31N 48°48' W 005°49'611.0
2018-May-19 12:01N 48°53' W 005°45'510.9
2018-May-19 11:31N 48°56' W 005°39'510.6
2018-May-19 11:00N 48°59' W 005°32'510.3
2018-May-19 10:31N 49°02' W 005°26'5 9.9
2018-May-19 10:00N 49°05' W 005°20'5 9.5
2018-May-19 09:30N 49°08' W 005°14'5 9.1
2018-May-19 09:00N 49°11' W 005°08'4 8.6
2018-May-19 08:30N 49°13' W 005°02'4 8.2
2018-May-19 08:00N 49°15' W 004°57'4 8.1
2018-May-19 07:29N 49°17' W 004°51'6 8.0
2018-May-19 06:42N 49°20' W 004°43'2 8.1
2018-May-19 06:28N 49°21' W 004°41'4 8.2
2018-May-19 06:01N 49°23' W 004°36'4 8.5
2018-May-19 05:30N 49°25' W 004°30'4 8.9
2018-May-19 05:01N 49°27' W 004°24'5 9.3
2018-May-19 04:31N 49°30' W 004°18'5 9.9
2018-May-19 03:58N 49°32' W 004°11'1110.7
2018-May-19 02:58N 49°38' W 003°57'811.3
2018-May-19 02:18N 49°41' W 003°47'411.4
2018-May-19 02:00N 49°43' W 003°42'611.2
2018-May-19 01:29N 49°46' W 003°34'610.9
2018-May-19 00:58N 49°49' W 003°27'510.4
2018-May-19 00:31N 49°51' W 003°20'5 9.9
2018-May-18 23:59N 49°54' W 003°13'4 9.2
2018-May-18 23:30N 49°56' W 003°07'4 8.7
2018-May-18 23:00N 49°58' W 003°01'4 8.0
2018-May-18 22:31N 50°00' W 002°56'4 7.5
2018-May-18 21:57N 50°02' W 002°50'3 7.4
2018-May-18 21:30N 50°02' W 002°45'4 7.3
2018-May-18 21:00N 50°03' W 002°39'4 7.5
2018-May-18 20:28N 50°04' W 002°33'4 7.9
2018-May-18 20:00N 50°05' W 002°28'4 8.3
2018-May-18 19:30N 50°06' W 002°21'4 9.0
2018-May-18 19:00N 50°07' W 002°15'5 9.9
2018-May-18 18:30N 50°09' W 002°07'510.8
2018-May-18 18:01N 50°10' W 001°59'611.8
2018-May-18 17:30N 50°12' W 001°50'612.5
2018-May-18 17:00N 50°14' W 001°41'612.8
2018-May-18 16:31N 50°15' W 001°31'612.9
2018-May-18 16:00N 50°17' W 001°22'713.1
2018-May-18 15:28N 50°19' W 001°11'613.1
2018-May-18 15:01N 50°21' W 001°02'612.5
2018-May-18 14:30N 50°22' W 000°52'511.0
2018-May-18 14:00N 50°24' W 000°44'510.0
2018-May-18 13:31N 50°25' W 000°37'5 9.3
2018-May-18 13:00N 50°27' W 000°29'510.2
2018-May-18 12:29N 50°28' W 000°21'4 6.9
2018-May-18 11:58N 50°29' W 000°16'4 7.8
2018-May-18 11:30N 50°30' W 000°11'4 7.5
2018-May-18 11:00N 50°31' W 000°05'4 7.2
2018-May-18 10:30N 50°32' E 000°01'4 7.3
2018-May-18 10:00N 50°33' E 000°06'4 7.6
2018-May-18 09:31N 50°34' E 000°12'4 8.2
2018-May-18 09:00N 50°35' E 000°18'5 9.0
2018-May-18 08:29N 50°36' E 000°25'5 9.9
2018-May-18 08:01N 50°38' E 000°32'510.5
2018-May-18 07:31N 50°41' E 000°39'611.0
2018-May-18 07:00N 50°44' E 000°46'611.2
2018-May-18 06:30N 50°47' E 000°54'611.0
2018-May-18 06:00N 50°50' E 001°01'810.4
2018-May-18 05:15N 50°55' E 001°10'4 9.9
2018-May-18 04:48N 50°58' E 001°16'3 9.2
2018-May-18 04:25N 51°00' E 001°20'4 8.6
2018-May-18 03:59N 51°03' E 001°25'4 8.0
2018-May-18 03:27N 51°06' E 001°30'3 6.9
2018-May-18 03:00N 51°08' E 001°33'3 6.1
2018-May-18 02:30N 51°10' E 001°37'3 6.3
2018-May-18 02:00N 51°12' E 001°41'3 6.7
2018-May-18 01:31N 51°14' E 001°45'4 7.6
2018-May-18 01:01N 51°17' E 001°47'4 8.6
2018-May-18 00:30N 51°21' E 001°50'5 9.4
2018-May-18 00:01N 51°25' E 001°54'510.2
2018-May-17 23:30N 51°29' E 001°59'611.2
2018-May-17 23:00N 51°33' E 002°05'611.5
2018-May-17 22:30N 51°38' E 002°12'611.7
2018-May-17 21:59N 51°42' E 002°18'511.6
2018-May-17 21:30N 51°46' E 002°25'711.4
2018-May-17 20:56N 51°51' E 002°32'511.2
2018-May-17 20:30N 51°54' E 002°38'710.5
2018-May-17 19:47N 51°59' E 002°46'3 9.8
2018-May-17 19:27N 52°01' E 002°51'5 9.4
2018-May-17 18:56N 52°03' E 002°58'4 9.2
2018-May-17 18:30N 52°04' E 003°04'4 8.9
2018-May-17 18:00N 52°04' E 003°12'4 8.9
2018-May-17 17:30N 52°04' E 003°19'4 8.5
2018-May-17 17:00N 52°04' E 003°26'4 8.0
2018-May-17 16:30N 52°04' E 003°32'4 7.9
2018-May-17 16:01N 52°04' E 003°39'4 7.7
2018-May-17 15:30N 52°03' E 003°45'4 7.8
2018-May-17 15:00N 52°03' E 003°51'3 6.8
2018-May-17 14:31N 52°02' E 003°56'4 7.8
2018-May-17 14:01N 51°60' E 004°02'5 9.9
2018-May-17 13:31N 51°58' E 004°09'510.5
2018-May-17 13:01N 51°54' E 004°16'4 7.0
2018-May-17 12:30N 51°54' E 004°21'0 0.3
2018-May-17 11:59N 51°54' E 004°21'0 0.0
2018-May-17 11:29N 51°54' E 004°21'0 0.0
2018-May-17 10:59N 51°54' E 004°21'0 0.0
2018-May-17 10:29N 51°54' E 004°21'0 0.0
2018-May-17 09:44N 51°54' E 004°21'0 0.0
2018-May-17 09:26N 51°54' E 004°21'0 0.0
2018-May-17 08:59N 51°54' E 004°21'0 0.0
2018-May-17 08:26N 51°54' E 004°21'0 0.0
2018-May-17 07:53N 51°54' E 004°21'0 0.0
2018-May-17 07:26N 51°54' E 004°21'0 0.0
2018-May-17 06:59N 51°54' E 004°21'0 0.0
2018-May-17 06:29N 51°54' E 004°21'0 0.0
2018-May-17 05:59N 51°54' E 004°21'0 0.0
2018-May-17 05:29N 51°54' E 004°21'0 0.0
2018-May-17 04:59N 51°54' E 004°21'0 0.0
2018-May-17 04:29N 51°54' E 004°21'0 0.0
2018-May-17 03:59N 51°54' E 004°21'0 0.0
2018-May-17 03:29N 51°54' E 004°21'0 0.0
2018-May-17 02:59N 51°54' E 004°21'0 0.0
2018-May-17 02:29N 51°54' E 004°21'0 0.0
2018-May-17 01:59N 51°54' E 004°21'0 0.0
2018-May-17 01:26N 51°54' E 004°21'0 0.0
2018-May-17 00:56N 51°54' E 004°21'0 0.0
2018-May-17 00:29N 51°54' E 004°21'0 0.0
2018-May-16 23:59N 51°54' E 004°21'0 0.0
2018-May-16 23:23N 51°54' E 004°21'0 0.0
2018-May-16 22:56N 51°54' E 004°21'0 0.0
2018-May-16 22:29N 51°54' E 004°21'0 0.0
2018-May-16 21:59N 51°54' E 004°21'0 0.0
2018-May-16 21:29N 51°54' E 004°21'0 0.0
2018-May-16 20:59N 51°54' E 004°21'0 0.0
2018-May-16 20:29N 51°54' E 004°21'0 0.0
2018-May-16 19:59N 51°54' E 004°21'0 0.0
2018-May-16 19:29N 51°54' E 004°21'0 0.0
2018-May-16 18:56N 51°54' E 004°21'0 0.0
2018-May-16 18:26N 51°54' E 004°21'0 0.0
2018-May-16 17:59N 51°54' E 004°21'0 0.0
2018-May-16 17:29N 51°54' E 004°21'0 0.0
2018-May-16 16:59N 51°54' E 004°21'0 0.0
2018-May-16 16:29N 51°54' E 004°21'0 0.0
2018-May-16 15:59N 51°54' E 004°21'0 0.0
2018-May-16 15:29N 51°54' E 004°21'0 0.0
2018-May-16 14:59N 51°54' E 004°21'0 0.0
2018-May-16 14:23N 51°54' E 004°21'0 0.0
2018-May-16 13:59N 51°54' E 004°21'0 0.0
2018-May-16 13:29N 51°54' E 004°21'0 0.0
2018-May-16 12:59N 51°54' E 004°21'0 0.0
2018-May-16 12:29N 51°54' E 004°21'0 0.0
2018-May-16 11:59N 51°54' E 004°21'0 0.0
2018-May-16 11:29N 51°54' E 004°21'0 0.0
2018-May-16 10:59N 51°54' E 004°21'0 0.0
2018-May-16 10:29N 51°54' E 004°21'0 0.0
2018-May-16 09:59N 51°54' E 004°21'0 0.0
2018-May-16 09:29N 51°54' E 004°21'0 0.0
2018-May-16 08:59N 51°54' E 004°21'0 0.0
2018-May-16 08:29N 51°54' E 004°21'0 0.0
2018-May-16 07:59N 51°54' E 004°21'0 0.0
2018-May-16 07:29N 51°54' E 004°21'0 0.0
2018-May-16 06:59N 51°54' E 004°21'0 0.0
2018-May-16 06:29N 51°54' E 004°21'0 0.0
2018-May-16 05:59N 51°54' E 004°21'0 0.0
2018-May-16 05:29N 51°54' E 004°21'0 0.0
2018-May-16 04:59N 51°54' E 004°21'0 0.0
2018-May-16 04:26N 51°54' E 004°21'0 0.0
2018-May-16 03:59N 51°54' E 004°21'0 0.0
2018-May-16 03:29N 51°54' E 004°21'0 0.0
2018-May-16 02:59N 51°54' E 004°21'0 0.0
2018-May-16 02:29N 51°54' E 004°21'0 0.0
2018-May-16 01:59N 51°54' E 004°21'0 0.0
2018-May-16 01:29N 51°54' E 004°21'0 0.0
2018-May-16 00:56N 51°54' E 004°21'0 0.0
2018-May-16 00:29N 51°54' E 004°21'0 0.0
2018-May-15 23:59N 51°54' E 004°21'0 0.0
2018-May-15 23:26N 51°54' E 004°21'0 0.0
2018-May-15 22:59N 51°54' E 004°21'0 0.0
2018-May-15 22:29N 51°54' E 004°21'0 0.0
2018-May-15 21:59N 51°54' E 004°21'0 0.0
2018-May-15 21:29N 51°54' E 004°21'0 0.0
2018-May-15 20:59N 51°54' E 004°21'0 0.0
2018-May-15 20:29N 51°54' E 004°21'0 0.0
2018-May-15 19:59N 51°54' E 004°21'0 0.0
2018-May-15 19:26N 51°54' E 004°21'0 0.0
2018-May-15 18:59N 51°54' E 004°21'0 0.0
2018-May-15 18:29N 51°54' E 004°21'0 0.0
2018-May-15 17:59N 51°54' E 004°21'0 0.0
2018-May-15 17:29N 51°54' E 004°21'0 0.0
2018-May-15 16:56N 51°54' E 004°21'0 0.0
2018-May-15 16:29N 51°54' E 004°21'0 0.0
2018-May-15 15:56N 51°54' E 004°21'0 0.0
2018-May-15 15:29N 51°54' E 004°21'0 0.0
2018-May-15 14:59N 51°54' E 004°21'0 0.0
2018-May-15 14:29N 51°54' E 004°21'0 0.0
2018-May-15 13:56N 51°54' E 004°21'0 0.0
2018-May-15 13:29N 51°54' E 004°21'0 0.0
2018-May-15 12:56N 51°54' E 004°21'0 0.0
2018-May-15 12:29N 51°54' E 004°21'0 0.0
2018-May-15 11:59N 51°54' E 004°21'0 0.0
2018-May-15 11:29N 51°54' E 004°21'0 0.0
2018-May-15 10:59N 51°54' E 004°21'0 0.0
2018-May-15 10:29N 51°54' E 004°21'0 0.0
2018-May-15 09:59N 51°54' E 004°21'0 0.0
2018-May-15 09:29N 51°54' E 004°21'0 0.0
2018-May-15 08:59N 51°54' E 004°21'0 0.0
2018-May-15 08:26N 51°54' E 004°21'0 0.0
2018-May-15 07:59N 51°54' E 004°21'0 0.0
2018-May-15 07:29N 51°54' E 004°21'0 0.0
2018-May-15 06:59N 51°54' E 004°21'0 0.0
2018-May-15 06:29N 51°54' E 004°21'0 0.0
2018-May-15 05:59N 51°54' E 004°21'0 0.0
2018-May-15 05:29N 51°54' E 004°21'0 0.0
2018-May-15 04:59N 51°54' E 004°21'0 0.0
2018-May-15 04:29N 51°54' E 004°21'0 0.0
2018-May-15 03:59N 51°54' E 004°21'0 0.0
2018-May-15 03:29N 51°54' E 004°21'0 0.0
2018-May-15 02:59N 51°54' E 004°21'0 0.0
2018-May-15 02:29N 51°54' E 004°21'0 0.0
2018-May-15 01:59N 51°54' E 004°21'0 0.0
2018-May-15 01:29N 51°54' E 004°21'0 0.0
2018-May-15 00:56N 51°54' E 004°21'0 0.0
2018-May-15 00:29N 51°54' E 004°21'0 0.0
2018-May-14 23:59N 51°54' E 004°21'0 0.0
2018-May-14 23:29N 51°54' E 004°21'0 0.0
2018-May-14 22:59N 51°54' E 004°21'0 0.0
2018-May-14 22:29N 51°54' E 004°21'0 0.0
2018-May-14 21:59N 51°54' E 004°21'0 0.0
2018-May-14 21:29N 51°54' E 004°21'0 0.0
2018-May-14 20:59N 51°54' E 004°21'0 0.0
2018-May-14 20:29N 51°54' E 004°21'0 0.0
2018-May-14 19:59N 51°54' E 004°21'0 0.0
2018-May-14 19:29N 51°54' E 004°21'0 0.0
2018-May-14 18:59N 51°54' E 004°21'0 0.0
2018-May-14 18:29N 51°54' E 004°21'0 0.0
2018-May-14 17:56N 51°54' E 004°21'0 0.0
2018-May-14 17:29N 51°54' E 004°21'0 0.0
2018-May-14 16:59N 51°54' E 004°21'0 0.0
2018-May-14 16:29N 51°54' E 004°21'0 0.0
2018-May-14 15:56N 51°54' E 004°21'0 0.0
2018-May-14 15:29N 51°54' E 004°21'0 0.0
2018-May-14 14:59N 51°54' E 004°21'0 0.0
2018-May-14 14:29N 51°54' E 004°21'0 0.0
2018-May-14 13:56N 51°54' E 004°21'0 0.0
2018-May-14 13:29N 51°54' E 004°21'0 0.0
2018-May-14 12:59N 51°54' E 004°21'0 0.3
2018-May-14 12:30N 51°54' E 004°21'4 7.6
2018-May-14 12:00N 51°55' E 004°15'510.5
2018-May-14 11:31N 51°58' E 004°09'5 9.3
2018-May-14 11:01N 51°60' E 004°02'4 8.8
2018-May-14 10:30N 51°60' E 003°54'3 6.5
2018-May-14 10:00N 51°60' E 003°49'4 8.1
2018-May-14 09:30N 51°58' E 003°43'4 8.4
2018-May-14 08:59N 51°57' E 003°36'4 8.7
2018-May-14 08:29N 51°56' E 003°30'6 8.5
2018-May-14 07:50N 51°54' E 003°21'3 8.4
2018-May-14 07:29N 51°53' E 003°16'4 8.1
2018-May-14 06:58N 51°52' E 003°10'17 8.6
2018-May-14 04:57N 51°49' E 002°42'57 8.8
2018-May-13 22:33N 52°42' E 002°09'210.0
2018-May-13 22:24N 52°43' E 002°08'610.0
2018-May-13 21:48N 52°49' E 002°05'310.2
2018-May-13 21:30N 52°52' E 002°02'610.4
2018-May-13 20:58N 52°55' E 001°55'510.8
2018-May-13 20:31N 52°58' E 001°48'611.2
2018-May-13 20:01N 53°01' E 001°40'611.3
2018-May-13 19:31N 53°06' E 001°36'611.5
2018-May-13 19:01N 53°11' E 001°32'711.7
2018-May-13 18:24N 53°18' E 001°27'511.7
2018-May-13 17:58N 53°22' E 001°22'6711.5
2018-May-13 12:07N 54°21' E 000°30'210.8
2018-May-13 11:54N 54°24' E 000°28'410.6
2018-May-13 11:29N 54°27' E 000°25'16910.3
2018-May-12 19:01N 56°58' W 001°53'0 9.5
2018-May-12 18:59N 56°58' W 001°53'5 9.7
2018-May-12 18:30N 57°02' W 001°57'5 9.8
2018-May-12 18:00N 57°07' W 001°60'3 6.0
2018-May-12 17:30N 57°08' W 002°04'0 0.5
2018-May-12 16:59N 57°09' W 002°05'0 0.0
2018-May-12 16:29N 57°09' W 002°05'0 0.0
2018-May-12 15:59N 57°09' W 002°05'0 0.0
2018-May-12 15:29N 57°09' W 002°05'0 0.0
2018-May-12 14:59N 57°09' W 002°05'0 0.0
2018-May-12 14:29N 57°09' W 002°05'0 0.0
2018-May-12 13:59N 57°09' W 002°05'0 0.0
2018-May-12 13:29N 57°09' W 002°05'0 0.0
2018-May-12 12:59N 57°09' W 002°05'0 0.0
2018-May-12 12:29N 57°09' W 002°05'0 0.0
2018-May-12 11:59N 57°09' W 002°05'0 0.0
2018-May-12 11:29N 57°09' W 002°05'0 0.0
2018-May-12 10:59N 57°09' W 002°05'0 0.0
2018-May-12 10:29N 57°09' W 002°05'0 0.0
2018-May-12 09:59N 57°09' W 002°05'0 0.0
2018-May-12 09:29N 57°09' W 002°05'0 0.0
2018-May-12 08:59N 57°09' W 002°05'0 0.0
2018-May-12 08:29N 57°09' W 002°05'0 0.0
2018-May-12 07:59N 57°09' W 002°05'0 0.0
2018-May-12 07:29N 57°09' W 002°05'0 0.0
2018-May-12 06:59N 57°09' W 002°05'0 0.0
2018-May-12 06:29N 57°09' W 002°05'0 0.0
2018-May-12 05:59N 57°09' W 002°05'0 0.0
2018-May-12 05:29N 57°09' W 002°05'0 0.0
2018-May-12 04:59N 57°09' W 002°05'0 0.0
2018-May-12 04:29N 57°09' W 002°05'0 0.0
2018-May-12 03:59N 57°09' W 002°05'0 0.0
2018-May-12 03:29N 57°09' W 002°05'0 0.0
2018-May-12 02:59N 57°09' W 002°05'0 0.0
2018-May-12 02:29N 57°09' W 002°05'0 0.0
2018-May-12 01:59N 57°09' W 002°05'0 0.3
2018-May-12 01:31N 57°09' W 002°05'2 4.6
2018-May-12 01:00N 57°10' W 002°01'5 9.5
2018-May-12 00:30N 57°11' W 001°53'5 9.6
2018-May-12 00:00N 57°13' W 001°44'6 9.8
2018-May-11 23:26N 57°15' W 001°35'202 9.8
2018-May-11 02:45N 58°33' E 004°17'310.8
2018-May-11 02:27N 58°35' E 004°22'510.7
2018-May-11 02:00N 58°36' E 004°31'510.4
2018-May-11 01:30N 58°39' E 004°40'510.2
2018-May-11 01:00N 58°41' E 004°49'510.3
2018-May-11 00:30N 58°43' E 004°58'510.9
2018-May-11 00:00N 58°46' E 005°07'510.6
2018-May-10 23:31N 58°48' E 005°16'510.2
2018-May-10 23:01N 58°50' E 005°25'5 9.2
2018-May-10 22:30N 58°53' E 005°32'3 6.3
2018-May-10 22:00N 58°55' E 005°36'0 0.0
2018-May-10 21:14N 58°55' E 005°36'0 0.0
2018-May-10 20:59N 58°55' E 005°36'0 0.0
2018-May-10 20:20N 58°55' E 005°36'0 0.0
2018-May-10 19:44N 58°55' E 005°36'0 0.0
2018-May-10 18:11N 58°55' E 005°36'0 0.0
2018-May-10 17:59N 58°55' E 005°36'0 0.0
2018-May-10 17:29N 58°55' E 005°36'0 0.0
2018-May-10 16:59N 58°55' E 005°36'0 0.0
2018-May-10 15:59N 58°55' E 005°36'0 0.0
2018-May-10 15:23N 58°55' E 005°36'0 0.0
2018-May-10 14:35N 58°55' E 005°36'0 0.0
2018-May-10 14:20N 58°55' E 005°36'0 0.0
2018-May-10 13:47N 58°55' E 005°36'0 0.0
2018-May-10 13:20N 58°55' E 005°36'0 0.0
2018-May-10 12:44N 58°55' E 005°36'0 0.0
2018-May-10 12:26N 58°55' E 005°36'0 0.0
2018-May-10 12:00N 58°55' E 005°36'2 3.6
2018-May-10 11:29N 58°55' E 005°33'510.0
2018-May-10 11:00N 58°50' E 005°30'510.7
2018-May-10 10:30N 58°46' E 005°24'  

Dump ship's entire track history